VTBU/UTP METAR and TAF weather

Enter ICAO airport designator
Station Type Date Time Source
VTBU METAR 2022/06/28 08:30 UTC NOAA

VTBU 280830Z 22010KT 9999 FEW020 33/22 Q1005 NOSIG


Station Type Date Time Source
VTBU Decoded METAR 2022/06/28 08:30 UTC NOAA

Rayong, Thailand (VTBU) 12-38N 101-21E 5M
Jun 28, 2022 - 04:30 AM EDT / 2022.06.28 0830 UTC
Wind: from the SW (220 degrees) at 12 MPH (10 KT):0
Visibility: greater than 7 mile(s):0
Sky conditions: mostly clear
Temperature: 91 F (33 C)
Heat index: 97.5 F (36.4 C):1
Dew Point: 71 F (22 C)
Relative Humidity: 52%
Pressure (altimeter): 29.68 in. Hg (1005 hPa)
ob: VTBU 280830Z 22010KT 9999 FEW020 33/22 Q1005 NOSIG
cycle: 8

Station Type Date Time Source
VTBU TAF 2022/06/28 06:37 UTC NOAA

TAF VTBU 280500Z 2806/2906 25008KT 9999 FEW020
BECMG 2813/2815 35006KT
BECMG 2902/2904 19008KT

Example: see airport list